MA90 weather

Host Hotel Heliport
Boxborough, Massachusetts, United States

Public forecast

Using degrees Fahrenheit for public forecast. Weather courtesy of forecast.io.

METAR (pilot weather report)

Closest report is Fitchburg Municipal Airport, 10.3 nm (19.1 km) WNW. Retrieved 2019/07/18 10:36 UTC (21 minutes ago):

KFIT 181036Z AUTO 06006KT 10SM SCT018 BKN030 OVC035 22/19 A2998 RMK AO2 T02220194

TAF (pilot weather forecast)

Forecast is more than 12 hours old.

Closest forecast is Laurence G Hanscom Field, 11.5 nm (21.2 km) E. Retrieved 2019/07/17 00:24 UTC (1 day ago):

TAF KBED 172322Z 1800/1824 27004KT P6SM VCSH OVC050 FM180300 24003KT P6SM OVC060 FM180800 00000KT P6SM VCSH OVC040 FM181000 04004KT 6SM BR VCSH OVC020 FM181100 05006KT P6SM VCSH OVC015 FM181500 06007KT 4SM -SHRA OVC008